Pipe Spring National Monumen, Arizona
Current Conditions -  °F | °C
As of 1:35 AM on Monday 20 Oct 2014 (Local Time) from KAZC Reporting Station
Clear Clear  
Wind Chill: 47°   Ceiling: Unl
Heat Index: 50°   Visibility: 10mi
Dew Point: 37°   Wind: 6mph
Humidity: 62%   Direction: 160°SSE
Pressure: 30.09"   Gusts: NA
Location:  36.9484°N, 112.529°W
Report Text: KAZC 200835Z AUTO 16005KT 10SM CLR 10/03 A3009 RMK AO2 T00980029
Loading
Personal Weather Stations






























Interactive Weather Map
Tropical Storm Tracking
New forecast layout! Learn more

10-Day Weather Forecast

Advertisements
Track Severe Weather on mobile